Time;durP1;ratioP1;P1;durP2;ratioP2;P2;SDS_P1;SDS_P2;PMS_P1;PMS_P2;Temp;Humidity;BMP_temperature;BMP_pressure;BME280_temperature;BME280_humidity;BME280_pressure;Samples;Min_cycle;Max_cycle;Signal;HPM_P1;HPM_P2
2021/12/08 00:01:20;;;;;;;;;;;;;;;-0.07;100.00;92085.31;5067404;28;19936;-85
2021/12/08 00:03:47;;;;;;;;;;;;;;;-0.01;100.00;92082.09;5067198;28;19940;-85
2021/12/08 00:06:14;;;;;;;;;;;;;;;-0.03;100.00;92085.75;5066842;28;19938;-85
2021/12/08 00:08:46;;;;;;;;;;;;;;;0.01;100.00;92089.53;5066752;28;19940;-86
2021/12/08 00:13:58;;;;;;;;;;;;;;;0.13;100.00;92097.44;5066631;28;20291;-85
2021/12/08 00:16:24;;;;;;;;;;;;;;;0.15;100.00;92100.59;5066915;28;20425;-85
2021/12/08 00:18:51;;;;;;;;;;;;;;;0.13;100.00;92107.53;5066801;28;19935;-85
2021/12/08 00:21:19;;;;;;;;;;;;;;;0.17;100.00;92113.00;5066678;28;19932;-85
2021/12/08 00:23:45;;;;;;;;;;;;;;;0.16;100.00;92116.50;5067119;28;19939;-85
2021/12/08 00:26:12;;;;;;;;;;;;;;;0.16;100.00;92111.44;5066761;28;19939;-86
2021/12/08 00:28:39;;;;;;;;;;;;;;;0.20;100.00;92110.16;5066689;28;19924;-85
2021/12/08 00:31:07;;;;;;;;;;;;;;;0.24;100.00;92109.63;5066345;28;19925;-86
2021/12/08 00:33:34;;;;;;;;;;;;;;;0.28;100.00;92120.19;5066363;28;20477;-86
2021/12/08 00:36:02;;;;;;;;;;;;;;;0.33;100.00;92122.19;5066416;28;19932;-86
2021/12/08 00:38:29;;;;;;;;;;;;;;;0.33;100.00;92124.72;5066662;28;19924;-86
2021/12/08 00:40:56;;;;;;;;;;;;;;;0.35;100.00;92127.84;5066344;28;20380;-87
2021/12/08 00:43:23;;;;;;;;;;;;;;;0.33;100.00;92134.81;5066922;28;19933;-86
2021/12/08 00:45:49;;;;;;;;;;;;;;;0.35;100.00;92127.84;5066352;28;20010;-85
2021/12/08 00:48:18;;;;;;;;;;;;;;;0.34;100.00;92133.84;5066238;28;19928;-86
2021/12/08 00:50:45;;;;;;;;;;;;;;;0.38;100.00;92130.03;5065986;28;20380;-86
2021/12/08 00:53:11;;;;;;;;;;;;;;;0.32;100.00;92133.25;5066552;28;19940;-86
2021/12/08 00:55:39;;;;;;;;;;;;;;;0.33;100.00;92137.34;5066195;28;20403;-85
2021/12/08 00:58:05;;;;;;;;;;;;;;;0.31;100.00;92144.28;5066353;28;19924;-85
2021/12/08 01:00:33;;;;;;;;;;;;;;;0.24;100.00;92137.41;5066216;28;19929;-85
2021/12/08 01:03:01;;;;;;;;;;;;;;;0.25;100.00;92146.56;5065891;28;19925;-86
2021/12/08 01:05:32;;;;;;;;;;;;;;;0.28;100.00;92144.66;5066071;28;19933;-88
2021/12/08 01:07:58;;;;;;;;;;;;;;;0.26;100.00;92144.81;5065909;28;19939;-85
2021/12/08 01:10:27;;;;;;;;;;;;;;;0.21;100.00;92142.81;5066418;28;19943;-87
2021/12/08 01:12:54;;;;;;;;;;;;;;;0.17;100.00;92140.78;5065957;28;19928;-87
2021/12/08 01:15:22;;;;;;;;;;;;;;;0.16;100.00;92144.28;5065936;28;19939;-89
2021/12/08 01:17:49;;;;;;;;;;;;;;;0.08;100.00;92148.47;5065832;28;19925;-88
2021/12/08 01:20:16;;;;;;;;;;;;;;;0.05;100.00;92141.22;5065640;28;19939;-85
2021/12/08 01:22:44;;;;;;;;;;;;;;;0.06;100.00;92142.00;5065976;28;19932;-86
2021/12/08 01:25:11;;;;;;;;;;;;;;;0.07;100.00;92146.91;5066710;28;19932;-87
2021/12/08 01:27:38;;;;;;;;;;;;;;;0.08;100.00;92145.13;5066402;28;19928;-86
2021/12/08 01:30:06;;;;;;;;;;;;;;;0.06;100.00;92147.84;5067007;28;19928;-87
2021/12/08 01:32:32;;;;;;;;;;;;;;;0.10;100.00;92154.13;5065748;28;19933;-84
2021/12/08 01:34:59;;;;;;;;;;;;;;;0.13;100.00;92152.97;5065748;28;20391;-84
2021/12/08 01:37:25;;;;;;;;;;;;;;;0.17;100.00;92148.38;5065913;28;19985;-85
2021/12/08 01:39:53;;;;;;;;;;;;;;;0.28;100.00;92152.22;5065317;28;20010;-86
2021/12/08 01:42:28;;;;;;;;;;;;;;;0.26;100.00;92147.34;5065391;28;19932;-85
2021/12/08 01:47:39;;;;;;;;;;;;;;;-0.59;100.00;92162.53;5064843;28;19955;-85
2021/12/08 01:50:07;;;;;;;;;;;;;;;-0.34;100.00;92153.06;5065589;28;19932;-85
2021/12/08 01:52:33;;;;;;;;;;;;;;;-0.18;100.00;92149.63;5065426;28;20493;-86
2021/12/08 01:55:01;;;;;;;;;;;;;;;-0.21;100.00;92159.28;5065164;28;19932;-86
2021/12/08 01:57:28;;;;;;;;;;;;;;;-0.07;100.00;92157.75;5065192;28;19932;-86
2021/12/08 01:59:55;;;;;;;;;;;;;;;-0.01;100.00;92162.09;5065280;28;19943;-85
2021/12/08 02:02:21;;;;;;;;;;;;;;;-0.56;100.00;92175.59;5065682;28;19936;-87
2021/12/08 02:04:48;;;;;;;;;;;;;;;-0.33;100.00;92179.88;5065603;28;19939;-87
2021/12/08 02:07:14;;;;;;;;;;;;;;;-0.27;100.00;92173.38;5065510;28;19932;-84
2021/12/08 02:09:43;;;;;;;;;;;;;;;-0.34;100.00;92175.78;5065581;28;19932;-85
2021/12/08 02:12:11;;;;;;;;;;;;;;;-0.52;100.00;92176.03;5066082;28;19930;-84
2021/12/08 02:14:39;;;;;;;;;;;;;;;-0.59;100.00;92183.50;5065840;28;20268;-84
2021/12/08 02:17:10;;;;;;;;;;;;;;;-0.40;100.00;92181.50;5065785;28;19925;-84
2021/12/08 02:19:36;;;;;;;;;;;;;;;-0.22;100.00;92188.78;5065420;28;19971;-84
2021/12/08 02:22:05;;;;;;;;;;;;;;;-0.21;100.00;92192.88;5065322;28;19933;-84
2021/12/08 02:24:31;;;;;;;;;;;;;;;-0.08;100.00;92192.31;5065499;28;20696;-84
2021/12/08 02:26:58;;;;;;;;;;;;;;;-0.02;100.00;92196.69;5065221;28;19933;-84
2021/12/08 02:29:33;;;;;;;;;;;;;;;0.06;100.00;92198.34;5065386;28;19924;-84
2021/12/08 02:32:06;;;;;;;;;;;;;;;0.11;100.00;92207.94;5065032;28;19994;-84
2021/12/08 02:48:27;;;;;;;;;;;;;;;-0.40;100.00;92221.88;5065659;28;19963;-83
2021/12/08 02:50:54;;;;;;;;;;;;;;;-0.60;100.00;92221.50;5064938;28;19942;-83
2021/12/08 02:53:22;;;;;;;;;;;;;;;-0.52;100.00;92213.13;5064698;28;20440;-83
2021/12/08 02:55:49;;;;;;;;;;;;;;;-0.39;100.00;92208.28;5064996;28;19933;-86
2021/12/08 02:58:16;;;;;;;;;;;;;;;-0.49;100.00;92216.09;5064463;28;19940;-86
2021/12/08 03:00:44;;;;;;;;;;;;;;;-0.36;100.00;92217.25;5068272;28;19928;-87
2021/12/08 03:03:11;;;;;;;;;;;;;;;-0.25;100.00;92204.25;5068118;28;21116;-87
2021/12/08 03:05:37;;;;;;;;;;;;;;;-0.11;100.00;92212.84;5068239;28;19936;-86
2021/12/08 03:08:05;;;;;;;;;;;;;;;-0.01;100.00;92208.34;5068370;28;20311;-86
2021/12/08 03:10:34;;;;;;;;;;;;;;;0.07;100.00;92204.97;5068285;28;20787;-86
2021/12/08 03:13:01;;;;;;;;;;;;;;;0.10;100.00;92206.38;5067909;28;20395;-85
2021/12/08 03:15:27;;;;;;;;;;;;;;;-0.03;100.00;92212.78;5068183;28;19924;-85
2021/12/08 03:17:54;;;;;;;;;;;;;;;-0.50;100.00;92217.03;5068198;28;19929;-85
2021/12/08 03:20:27;;;;;;;;;;;;;;;-0.42;100.00;92211.94;5068751;28;19939;-85
2021/12/08 03:23:00;;;;;;;;;;;;;;;-0.41;100.00;92218.53;5068228;28;19932;-91
2021/12/08 03:25:29;;;;;;;;;;;;;;;-0.58;100.00;92225.44;5068784;28;19975;-84
2021/12/08 03:28:07;;;;;;;;;;;;;;;-0.76;100.00;92225.69;5068362;28;19939;-87
2021/12/08 03:30:39;;;;;;;;;;;;;;;-1.30;100.00;92226.34;5068607;28;19928;-87
2021/12/08 03:33:05;;;;;;;;;;;;;;;-1.22;100.00;92226.31;5068393;28;19924;-87
2021/12/08 03:35:32;;;;;;;;;;;;;;;-1.20;100.00;92237.03;5068631;28;19928;-88
2021/12/08 03:37:59;;;;;;;;;;;;;;;-1.01;100.00;92237.59;5068386;28;20375;-87
2021/12/08 03:40:28;;;;;;;;;;;;;;;-0.83;100.00;92237.38;5068302;28;19967;-88
2021/12/08 03:42:57;;;;;;;;;;;;;;;-0.57;100.00;92236.31;5067771;28;19935;-88
2021/12/08 03:45:28;;;;;;;;;;;;;;;-0.35;100.00;92241.53;5067937;28;20486;-84
2021/12/08 03:48:01;;;;;;;;;;;;;;;-0.19;100.00;92241.44;5068177;28;20829;-83
2021/12/08 03:50:28;;;;;;;;;;;;;;;-0.10;100.00;92249.75;5067364;28;19928;-85
2021/12/08 03:52:54;;;;;;;;;;;;;;;-0.36;100.00;92253.38;5067490;28;20034;-85
2021/12/08 03:55:21;;;;;;;;;;;;;;;-0.25;100.00;92251.41;5067290;28;19928;-85
2021/12/08 03:57:47;;;;;;;;;;;;;;;-0.37;100.00;92258.59;5067436;28;19925;-85
2021/12/08 04:00:16;;;;;;;;;;;;;;;-0.20;100.00;92264.31;5067393;28;19928;-84
2021/12/08 04:02:44;;;;;;;;;;;;;;;-0.10;100.00;92259.06;5067507;28;20285;-85
2021/12/08 04:05:12;;;;;;;;;;;;;;;-0.05;100.00;92262.66;5067010;28;19932;-84
2021/12/08 04:07:44;;;;;;;;;;;;;;;-0.02;100.00;92264.06;5067252;28;19940;-84
2021/12/08 04:10:16;;;;;;;;;;;;;;;0.04;100.00;92270.19;5066925;28;19932;-85
2021/12/08 04:12:43;;;;;;;;;;;;;;;0.03;100.00;92263.53;5068144;28;20002;-84
2021/12/08 04:15:10;;;;;;;;;;;;;;;-0.31;100.00;92265.50;5070974;28;19928;-85
2021/12/08 04:17:40;;;;;;;;;;;;;;;-0.77;100.00;92261.94;5071302;28;20377;-84
2021/12/08 04:20:11;;;;;;;;;;;;;;;-1.19;100.00;92263.00;5071483;28;19974;-84
2021/12/08 04:22:39;;;;;;;;;;;;;;;-1.28;100.00;92268.09;5070912;28;19928;-84
2021/12/08 04:25:07;;;;;;;;;;;;;;;-1.23;100.00;92265.88;5070958;28;19924;-84
2021/12/08 04:27:38;;;;;;;;;;;;;;;-1.11;100.00;92268.03;5070767;28;20362;-85
2021/12/08 04:30:05;;;;;;;;;;;;;;;-0.93;100.00;92287.97;5070779;28;19936;-85
2021/12/08 04:32:33;;;;;;;;;;;;;;;-0.73;100.00;92275.00;5070824;28;19943;-85
2021/12/08 04:35:01;;;;;;;;;;;;;;;-0.74;100.00;92284.28;5070684;28;19970;-85
2021/12/08 04:37:32;;;;;;;;;;;;;;;-0.93;100.00;92294.78;5070580;28;19924;-89
2021/12/08 04:40:11;;;;;;;;;;;;;;;-0.85;100.00;92294.72;5050606;28;19924;-85
2021/12/08 04:42:52;;;;;;;;;;;;;;;-0.83;100.00;92296.16;5059978;28;19960;-86
2021/12/08 04:45:26;;;;;;;;;;;;;;;-1.01;100.00;92288.81;5060401;28;20008;-86
2021/12/08 04:48:11;;;;;;;;;;;;;;;-0.93;100.00;92300.59;5059054;28;20453;-85
2021/12/08 04:51:03;;;;;;;;;;;;;;;-0.78;100.00;92303.25;5056981;28;19924;-87
2021/12/08 04:53:43;;;;;;;;;;;;;;;-0.69;100.00;92304.75;5058496;28;19928;-87
2021/12/08 05:02:00;;;;;;;;;;;;;;;-1.21;100.00;92314.38;5059507;28;19955;-85
2021/12/08 05:07:28;;;;;;;;;;;;;;;-1.45;100.00;92322.72;5060003;28;19928;-85
2021/12/08 05:09:57;;;;;;;;;;;;;;;-1.56;100.00;92331.41;5058835;28;19970;-86
2021/12/08 05:12:25;;;;;;;;;;;;;;;-1.66;100.00;92330.78;5059282;28;19924;-86
2021/12/08 05:14:53;;;;;;;;;;;;;;;-1.88;100.00;92343.81;5060687;28;19924;-85
2021/12/08 05:17:21;;;;;;;;;;;;;;;-1.80;100.00;92349.81;5059745;28;19972;-84
2021/12/08 05:19:50;;;;;;;;;;;;;;;-1.71;100.00;92358.16;5058483;28;19931;-85
2021/12/08 05:22:19;;;;;;;;;;;;;;;-1.66;100.00;92350.91;5058992;28;20007;-85
2021/12/08 05:24:51;;;;;;;;;;;;;;;-1.49;100.00;92352.50;5060269;28;19936;-85
2021/12/08 05:27:21;;;;;;;;;;;;;;;-1.50;100.00;92352.63;5059168;28;19925;-85
2021/12/08 05:29:50;;;;;;;;;;;;;;;-1.65;100.00;92360.03;5058576;28;19932;-86
2021/12/08 05:32:17;;;;;;;;;;;;;;;-1.56;100.00;92361.63;5059658;28;19930;-86
2021/12/08 05:34:44;;;;;;;;;;;;;;;-1.45;100.00;92365.56;5059923;28;19928;-86
2021/12/08 05:37:11;;;;;;;;;;;;;;;-1.50;100.00;92371.06;5057978;28;19928;-85
2021/12/08 05:39:39;;;;;;;;;;;;;;;-1.43;100.00;92367.91;5059398;28;20391;-85
2021/12/08 05:42:07;;;;;;;;;;;;;;;-1.34;100.00;92369.50;5059851;28;19929;-85
2021/12/08 05:44:36;;;;;;;;;;;;;;;-1.29;100.00;92379.09;5058475;28;19936;-85
2021/12/08 05:47:05;;;;;;;;;;;;;;;-1.06;100.00;92378.44;5058912;28;19932;-85
2021/12/08 05:49:32;;;;;;;;;;;;;;;-0.83;100.00;92379.34;5060941;28;19924;-85
2021/12/08 05:51:59;;;;;;;;;;;;;;;-0.62;100.00;92383.09;5059392;28;19928;-85
2021/12/08 05:54:29;;;;;;;;;;;;;;;-0.44;100.00;92382.09;5059945;28;20343;-85
2021/12/08 05:56:56;;;;;;;;;;;;;;;-0.23;100.00;92386.59;5058386;28;20380;-85
2021/12/08 05:59:24;;;;;;;;;;;;;;;-0.10;100.00;92392.88;5058604;28;19928;-84
2021/12/08 06:01:53;;;;;;;;;;;;;;;-0.07;100.00;92395.03;5060286;28;19925;-84
2021/12/08 06:04:22;;;;;;;;;;;;;;;-0.41;100.00;92399.44;5059478;28;19982;-84
2021/12/08 06:06:49;;;;;;;;;;;;;;;-0.85;100.00;92396.38;5058265;28;19932;-85
2021/12/08 06:09:17;;;;;;;;;;;;;;;-1.31;100.00;92406.97;5059488;28;19925;-85
2021/12/08 06:11:44;;;;;;;;;;;;;;;-1.30;100.00;92410.28;5059557;28;19928;-85
2021/12/08 06:14:11;;;;;;;;;;;;;;;-1.50;100.00;92411.38;5058210;28;19925;-85
2021/12/08 06:16:39;;;;;;;;;;;;;;;-1.71;100.00;92411.78;5059184;28;19928;-84
2021/12/08 06:19:08;;;;;;;;;;;;;;;-1.77;100.00;92413.22;5060010;28;19936;-84
2021/12/08 06:21:35;;;;;;;;;;;;;;;-1.82;100.00;92412.09;5058043;28;19935;-85
2021/12/08 06:24:03;;;;;;;;;;;;;;;-1.83;100.00;92418.88;5058823;28;19924;-85
2021/12/08 06:26:29;;;;;;;;;;;;;;;-1.85;100.00;92419.97;5059993;28;19947;-86
2021/12/08 06:28:57;;;;;;;;;;;;;;;-1.88;100.00;92416.81;5058058;28;20407;-85
2021/12/08 06:31:25;;;;;;;;;;;;;;;-1.82;100.00;92422.16;5058399;28;20294;-86
2021/12/08 06:33:52;;;;;;;;;;;;;;;-1.80;100.00;92421.06;5062014;28;19929;-86
2021/12/08 06:36:21;;;;;;;;;;;;;;;-1.86;100.00;92415.88;5062466;28;19975;-86
2021/12/08 06:38:48;;;;;;;;;;;;;;;-1.90;100.00;92421.19;5061376;28;20410;-86
2021/12/08 06:41:17;;;;;;;;;;;;;;;-1.92;100.00;92419.78;5063171;28;19951;-86
2021/12/08 06:43:45;;;;;;;;;;;;;;;-1.91;100.00;92424.66;5063117;28;19925;-85
2021/12/08 06:46:12;;;;;;;;;;;;;;;-1.80;100.00;92423.59;5061367;28;19925;-85
2021/12/08 06:48:41;;;;;;;;;;;;;;;-1.94;100.00;92432.50;5063101;28;19924;-84
2021/12/08 06:51:09;;;;;;;;;;;;;;;-1.98;100.00;92421.19;5063150;28;19978;-85
2021/12/08 06:53:40;;;;;;;;;;;;;;;-1.92;100.00;92428.13;5061760;28;19932;-85
2021/12/08 06:56:08;;;;;;;;;;;;;;;-1.81;100.00;92424.53;5061553;28;19924;-85
2021/12/08 06:58:37;;;;;;;;;;;;;;;-1.64;100.00;92427.88;5061435;28;19932;-86
2021/12/08 07:01:15;;;;;;;;;;;;;;;-1.77;100.00;92430.03;5061839;28;19931;-85
2021/12/08 07:03:48;;;;;;;;;;;;;;;-1.83;100.00;92428.94;5062387;28;20063;-85
2021/12/08 07:06:30;;;;;;;;;;;;;;;-1.62;100.00;92431.03;5061255;28;19972;-85
2021/12/08 07:08:59;;;;;;;;;;;;;;;-1.59;100.00;92427.41;5061803;28;19936;-86
2021/12/08 07:11:27;;;;;;;;;;;;;;;-1.60;100.00;92428.34;5061464;28;19932;-85
2021/12/08 07:13:55;;;;;;;;;;;;;;;-1.58;100.00;92433.25;5061054;28;19929;-87
2021/12/08 07:16:23;;;;;;;;;;;;;;;-1.68;100.00;92433.38;5062017;28;19924;-86
2021/12/08 07:18:53;;;;;;;;;;;;;;;-1.51;100.00;92444.25;5062721;28;19924;-86
2021/12/08 07:21:22;;;;;;;;;;;;;;;-1.54;100.00;92434.50;5061582;28;19925;-86
2021/12/08 07:23:51;;;;;;;;;;;;;;;-1.63;100.00;92434.50;5060646;28;19951;-85
2021/12/08 07:26:21;;;;;;;;;;;;;;;-1.63;100.00;92429.44;5061719;28;19935;-86
2021/12/08 07:28:48;;;;;;;;;;;;;;;-1.59;100.00;92429.16;5062409;28;19929;-86
2021/12/08 07:31:18;;;;;;;;;;;;;;;-1.43;100.00;92440.97;5060543;28;19928;-85
2021/12/08 07:33:44;;;;;;;;;;;;;;;-1.32;100.00;92439.88;5061089;28;19928;-86
2021/12/08 07:36:14;;;;;;;;;;;;;;;-1.64;100.00;92450.53;5062800;28;19932;-85
2021/12/08 07:38:41;;;;;;;;;;;;;;;-1.53;100.00;92459.53;5061633;28;19929;-85
2021/12/08 07:41:14;;;;;;;;;;;;;;;-1.46;100.00;92457.19;5060527;28;20300;-85
2021/12/08 07:43:44;;;;;;;;;;;;;;;-1.65;100.00;92463.28;5061463;28;19932;-85
2021/12/08 07:46:13;;;;;;;;;;;;;;;-1.69;100.00;92472.88;5059184;28;20728;-85
2021/12/08 07:48:41;;;;;;;;;;;;;;;-1.78;100.00;92474.59;5061403;28;19929;-85
2021/12/08 07:51:12;;;;;;;;;;;;;;;-1.68;100.00;92478.69;5062194;28;19928;-86
2021/12/08 07:53:39;;;;;;;;;;;;;;;-1.82;100.00;92490.13;5060874;28;20335;-85
2021/12/08 07:56:07;;;;;;;;;;;;;;;-1.72;100.00;92490.78;5060415;28;19925;-86
2021/12/08 07:58:35;;;;;;;;;;;;;;;-1.55;100.00;92493.38;5059736;28;19940;-86
2021/12/08 08:01:07;;;;;;;;;;;;;;;-1.51;100.00;92500.47;5060742;28;19925;-86
2021/12/08 08:03:34;;;;;;;;;;;;;;;-1.40;100.00;92506.16;5059889;28;19928;-86
2021/12/08 08:06:02;;;;;;;;;;;;;;;-1.26;100.00;92505.56;5060776;28;19970;-86
2021/12/08 08:08:31;;;;;;;;;;;;;;;-1.23;100.00;92507.78;5061916;28;20343;-86
2021/12/08 08:11:00;;;;;;;;;;;;;;;-1.09;100.00;92520.69;5060155;28;19925;-87
2021/12/08 08:13:28;;;;;;;;;;;;;;;-1.12;100.00;92511.72;5060233;28;19924;-86
2021/12/08 08:16:04;;;;;;;;;;;;;;;-1.36;100.00;92512.47;5060066;28;20283;-86
2021/12/08 08:18:33;;;;;;;;;;;;;;;-1.33;100.00;92514.69;5059264;28;19968;-87
2021/12/08 08:21:02;;;;;;;;;;;;;;;-1.15;100.00;92508.72;5052555;28;19975;-86
2021/12/08 08:23:31;;;;;;;;;;;;;;;-1.32;100.00;92505.38;5050743;28;19925;-85
2021/12/08 08:25:58;;;;;;;;;;;;;;;-1.18;100.00;92514.06;5050641;28;19975;-87
2021/12/08 08:28:25;;;;;;;;;;;;;;;-1.36;100.00;92512.47;5051027;28;20335;-86
2021/12/08 08:30:53;;;;;;;;;;;;;;;-1.40;100.00;92514.50;5051100;28;20404;-86
2021/12/08 08:33:20;;;;;;;;;;;;;;;-1.27;100.00;92514.06;5050578;28;19924;-85
2021/12/08 08:35:51;;;;;;;;;;;;;;;-1.21;100.00;92507.59;5067613;28;20015;-85
2021/12/08 08:38:19;;;;;;;;;;;;;;;-1.03;100.00;92509.22;5069362;28;19928;-86
2021/12/08 08:40:47;;;;;;;;;;;;;;;-1.10;100.00;92511.56;5070281;28;19924;-86
2021/12/08 08:43:16;;;;;;;;;;;;;;;-1.09;100.00;92513.94;5070168;28;19935;-87
2021/12/08 08:45:45;;;;;;;;;;;;;;;-0.94;100.00;92515.81;5070349;28;19928;-86
2021/12/08 08:48:13;;;;;;;;;;;;;;;-0.99;100.00;92510.47;5070448;28;20383;-86
2021/12/08 08:50:41;;;;;;;;;;;;;;;-0.80;100.00;92509.38;5070289;28;19935;-86
2021/12/08 08:53:10;;;;;;;;;;;;;;;-0.74;100.00;92508.75;5070451;28;19928;-86
2021/12/08 08:55:39;;;;;;;;;;;;;;;-0.54;100.00;92505.91;5070099;28;19924;-87
2021/12/08 08:58:07;;;;;;;;;;;;;;;-0.46;100.00;92507.63;5070548;28;19925;-87
2021/12/08 09:00:35;;;;;;;;;;;;;;;-0.34;100.00;92511.41;5070667;28;19928;-87
2021/12/08 09:03:02;;;;;;;;;;;;;;;-0.43;100.00;92507.28;5070049;28;19925;-86
2021/12/08 09:05:31;;;;;;;;;;;;;;;-0.35;100.00;92501.44;5070340;28;20418;-86
2021/12/08 09:07:59;;;;;;;;;;;;;;;-0.14;100.00;92506.78;5069685;28;19930;-86
2021/12/08 09:10:29;;;;;;;;;;;;;;;-0.10;100.00;92502.19;5069953;28;19928;-86
2021/12/08 09:12:57;;;;;;;;;;;;;;;0.09;100.00;92490.16;5069825;28;19930;-86
2021/12/08 09:15:25;;;;;;;;;;;;;;;0.19;100.00;92489.94;5069734;28;20291;-86
2021/12/08 09:17:53;;;;;;;;;;;;;;;0.24;100.00;92485.19;5069765;28;19924;-86
2021/12/08 09:20:25;;;;;;;;;;;;;;;0.38;100.00;92481.19;5070021;28;19931;-86
2021/12/08 09:22:57;;;;;;;;;;;;;;;0.61;100.00;92476.16;5070112;28;19994;-87
2021/12/08 09:25:30;;;;;;;;;;;;;;;0.76;100.00;92473.72;5070043;28;19955;-86
2021/12/08 09:28:02;;;;;;;;;;;;;;;0.93;100.00;92479.44;5068884;28;20354;-86
2021/12/08 09:30:33;;;;;;;;;;;;;;;0.72;100.00;92482.59;5069877;28;19928;-87
2021/12/08 09:33:01;;;;;;;;;;;;;;;0.83;100.00;92478.88;5069708;28;19928;-87
2021/12/08 09:35:30;;;;;;;;;;;;;;;0.59;100.00;92480.59;5069840;28;19951;-86
2021/12/08 09:37:59;;;;;;;;;;;;;;;0.66;100.00;92465.56;5069396;28;19924;-87
2021/12/08 09:40:29;;;;;;;;;;;;;;;0.42;100.00;92466.47;5069817;28;19931;-87
2021/12/08 09:42:57;;;;;;;;;;;;;;;0.81;100.00;92465.63;5069821;28;19929;-88
2021/12/08 09:45:27;;;;;;;;;;;;;;;1.06;100.00;92465.44;5069781;28;19935;-88
2021/12/08 09:47:54;;;;;;;;;;;;;;;1.14;100.00;92470.44;5069882;28;19928;-88
2021/12/08 09:50:21;;;;;;;;;;;;;;;1.26;100.00;92463.25;5070123;28;19928;-87
2021/12/08 09:52:48;;;;;;;;;;;;;;;1.15;100.00;92469.47;5069872;28;19924;-88
2021/12/08 09:55:16;;;;;;;;;;;;;;;1.31;100.00;92460.19;5069569;28;19925;-87
2021/12/08 09:57:43;;;;;;;;;;;;;;;1.44;100.00;92462.13;5069890;28;19935;-87
2021/12/08 10:00:18;;;;;;;;;;;;;;;1.48;100.00;92458.28;5066031;28;19928;-88
2021/12/08 10:02:46;;;;;;;;;;;;;;;1.51;100.00;92462.22;5067324;28;19932;-88
2021/12/08 10:05:14;;;;;;;;;;;;;;;1.71;100.00;92457.47;5068651;28;20023;-88
2021/12/08 10:07:43;;;;;;;;;;;;;;;1.87;100.00;92461.56;5069961;28;19928;-88
2021/12/08 10:10:10;;;;;;;;;;;;;;;1.89;100.00;92458.84;5073567;28;19970;-87
2021/12/08 10:12:37;;;;;;;;;;;;;;;2.02;100.00;92459.00;5073571;28;19932;-86
2021/12/08 10:15:06;;;;;;;;;;;;;;;2.03;100.00;92462.34;5073426;28;19971;-87
2021/12/08 10:17:33;;;;;;;;;;;;;;;2.04;100.00;92449.47;5073695;28;19924;-86
2021/12/08 10:20:11;;;;;;;;;;;;;;;2.16;100.00;92441.47;5073816;28;19971;-86
2021/12/08 10:22:37;;;;;;;;;;;;;;;1.90;100.00;92453.59;5073389;28;19968;-84
2021/12/08 10:25:06;;;;;;;;;;;;;;;1.53;100.00;92440.84;5073129;28;19928;-84
2021/12/08 10:27:34;;;;;;;;;;;;;;;0.97;100.00;92447.00;5073259;28;19928;-84
2021/12/08 10:30:15;;;;;;;;;;;;;;;1.11;100.00;92448.00;5073248;28;20025;-84
2021/12/08 10:32:42;;;;;;;;;;;;;;;0.79;100.00;92445.56;5073192;28;19932;-84
2021/12/08 10:35:38;;;;;;;;;;;;;;;0.55;100.00;92443.19;5073456;28;19936;-84
2021/12/08 10:38:05;;;;;;;;;;;;;;;0.93;100.00;92438.22;5073609;28;19935;-87
2021/12/08 10:40:31;;;;;;;;;;;;;;;0.80;100.00;92439.53;5073164;28;19931;-86
2021/12/08 10:42:58;;;;;;;;;;;;;;;1.13;100.00;92438.53;5072769;28;20280;-86
2021/12/08 10:45:30;;;;;;;;;;;;;;;1.44;100.00;92436.84;5073008;28;20384;-86
2021/12/08 10:47:59;;;;;;;;;;;;;;;1.64;100.00;92443.91;5072283;28;19939;-86
2021/12/08 10:55:58;;;;;;;;;;;;;;;1.90;100.00;92443.47;5072503;28;19988;-86
2021/12/08 10:58:25;;;;;;;;;;;;;;;1.88;100.00;92437.78;5073229;28;19931;-87
2021/12/08 11:00:53;;;;;;;;;;;;;;;1.98;100.00;92438.31;5072940;28;19935;-87
2021/12/08 11:03:20;;;;;;;;;;;;;;;1.99;100.00;92439.13;5072360;28;19928;-87
2021/12/08 11:05:49;;;;;;;;;;;;;;;2.03;100.00;92447.91;5072452;28;19924;-87
2021/12/08 11:08:21;;;;;;;;;;;;;;;2.09;100.00;92447.22;5072188;28;19928;-87
2021/12/08 11:10:49;;;;;;;;;;;;;;;2.11;100.00;92445.31;5072700;28;19935;-87
2021/12/08 11:13:18;;;;;;;;;;;;;;;2.27;100.00;92446.06;5072543;28;19928;-87
2021/12/08 11:15:46;;;;;;;;;;;;;;;2.35;100.00;92442.63;5072682;28;19928;-87
2021/12/08 11:18:14;;;;;;;;;;;;;;;2.46;100.00;92444.69;5072623;28;19928;-87
2021/12/08 11:20:42;;;;;;;;;;;;;;;2.52;100.00;92445.75;5070883;28;20307;-84
2021/12/08 11:23:11;;;;;;;;;;;;;;;2.56;100.00;92453.78;5072017;28;19943;-85
2021/12/08 11:25:44;;;;;;;;;;;;;;;2.61;100.00;92461.63;5071861;28;19933;-84
2021/12/08 11:28:25;;;;;;;;;;;;;;;2.63;100.00;92454.63;5072320;28;19929;-85
2021/12/08 11:30:53;;;;;;;;;;;;;;;2.66;100.00;92456.81;5072198;28;19934;-84
2021/12/08 11:33:21;;;;;;;;;;;;;;;2.73;100.00;92460.19;5072424;28;19935;-84
2021/12/08 11:35:49;;;;;;;;;;;;;;;2.85;100.00;92463.03;5072040;28;20011;-83
2021/12/08 11:38:24;;;;;;;;;;;;;;;2.94;100.00;92461.16;5071689;28;19936;-83
2021/12/08 11:40:58;;;;;;;;;;;;;;;3.01;100.00;92468.84;5071595;28;19929;-83
2021/12/08 11:43:28;;;;;;;;;;;;;;;3.06;100.00;92456.41;5071964;28;19931;-83
2021/12/08 11:45:55;;;;;;;;;;;;;;;3.07;100.00;92468.88;5071785;28;19928;-83
2021/12/08 11:48:22;;;;;;;;;;;;;;;2.89;97.77;92471.88;5072084;28;19924;-82
2021/12/08 11:50:49;;;;;;;;;;;;;;;2.89;100.00;92461.72;5072068;28;20350;-82
2021/12/08 11:53:22;;;;;;;;;;;;;;;2.92;100.00;92460.56;5071605;28;20391;-82
2021/12/08 11:55:48;;;;;;;;;;;;;;;2.94;100.00;92461.97;5071917;28;20007;-82
2021/12/08 11:58:15;;;;;;;;;;;;;;;3.05;100.00;92459.88;5071452;28;19924;-82
2021/12/08 12:00:45;;;;;;;;;;;;;;;3.06;100.00;92467.31;5071625;28;19928;-81
2021/12/08 12:03:14;;;;;;;;;;;;;;;3.05;100.00;92457.34;5071573;28;20426;-82
2021/12/08 12:05:42;;;;;;;;;;;;;;;2.86;100.00;92461.31;5071424;28;19935;-82
2021/12/08 12:08:11;;;;;;;;;;;;;;;2.77;100.00;92465.69;5071438;28;19928;-85
2021/12/08 12:10:40;;;;;;;;;;;;;;;2.74;100.00;92469.34;5071021;28;19932;-85
2021/12/08 12:13:08;;;;;;;;;;;;;;;2.81;100.00;92464.34;5071283;28;19925;-85
2021/12/08 12:15:35;;;;;;;;;;;;;;;2.13;100.00;92468.69;5071130;28;19989;-84
2021/12/08 12:18:03;;;;;;;;;;;;;;;1.40;100.00;92458.38;5063441;28;19928;-87
2021/12/08 12:20:36;;;;;;;;;;;;;;;1.53;100.00;92462.84;5057081;28;19959;-85
2021/12/08 12:23:20;;;;;;;;;;;;;;;1.67;100.00;92453.69;5057822;28;19970;-84
2021/12/08 12:25:53;;;;;;;;;;;;;;;1.74;100.00;92454.56;5059214;28;19951;-85
2021/12/08 12:28:31;;;;;;;;;;;;;;;1.79;100.00;92448.97;5062098;28;19935;-85
2021/12/08 12:31:01;;;;;;;;;;;;;;;2.04;100.00;92446.94;5058754;28;19931;-86
2021/12/08 12:33:28;;;;;;;;;;;;;;;2.24;100.00;92447.22;5058659;28;20003;-85
2021/12/08 12:35:55;;;;;;;;;;;;;;;2.36;100.00;92444.22;5059289;28;19935;-85
2021/12/08 12:38:33;;;;;;;;;;;;;;;2.45;100.00;92439.81;5059744;28;19931;-85
2021/12/08 12:41:01;;;;;;;;;;;;;;;2.56;100.00;92446.16;5067643;28;19931;-86
2021/12/08 12:43:28;;;;;;;;;;;;;;;2.59;100.00;92446.59;5070827;28;19924;-85
2021/12/08 12:46:03;;;;;;;;;;;;;;;2.50;100.00;92425.63;5067282;28;19932;-85
2021/12/08 12:48:31;;;;;;;;;;;;;;;2.62;100.00;92453.84;5066150;28;19951;-85
2021/12/08 12:50:59;;;;;;;;;;;;;;;2.64;100.00;92453.69;5066601;28;19925;-84
2021/12/08 12:53:34;;;;;;;;;;;;;;;2.52;100.00;92456.69;5066164;28;19925;-84
2021/12/08 12:56:02;;;;;;;;;;;;;;;2.64;100.00;92467.13;5065855;28;20050;-84
2021/12/08 12:58:39;;;;;;;;;;;;;;;2.67;100.00;92458.38;5066043;28;19940;-85
2021/12/08 13:01:08;;;;;;;;;;;;;;;2.72;100.00;92468.00;5066306;28;20384;-84
2021/12/08 13:03:40;;;;;;;;;;;;;;;2.72;100.00;92468.75;5065731;28;19933;-84
2021/12/08 13:06:07;;;;;;;;;;;;;;;2.71;100.00;92458.78;5065740;28;19924;-84
2021/12/08 13:08:34;;;;;;;;;;;;;;;2.74;100.00;92461.75;5065946;28;19932;-85
2021/12/08 13:11:10;;;;;;;;;;;;;;;2.72;100.00;92461.16;5066164;28;19931;-84
2021/12/08 13:13:45;;;;;;;;;;;;;;;2.69;100.00;92466.59;5065934;28;19924;-84
2021/12/08 13:16:21;;;;;;;;;;;;;;;2.69;100.00;92460.72;5066081;28;19974;-84
2021/12/08 13:18:53;;;;;;;;;;;;;;;2.70;100.00;92467.38;5066037;28;20414;-83
2021/12/08 13:21:37;;;;;;;;;;;;;;;2.71;100.00;92466.41;5066475;28;19935;-84
2021/12/08 13:24:04;;;;;;;;;;;;;;;2.65;100.00;92458.53;5066828;28;19940;-84